createdAt,value
2018-02-21T00:00:49.972Z,73.61
2018-02-21T00:03:25.051Z,73.65
2018-02-21T00:05:59.919Z,73.85
2018-02-21T00:08:34.561Z,73.93
2018-02-21T00:11:09.809Z,73.93
2018-02-21T00:13:44.955Z,73.73
2018-02-21T00:16:20.556Z,73.70
2018-02-21T00:18:55.675Z,73.65
2018-02-21T00:21:30.125Z,73.75
2018-02-21T00:24:04.943Z,73.81
2018-02-21T00:26:39.655Z,73.80
2018-02-21T00:29:14.890Z,73.72
2018-02-21T00:31:49.650Z,73.88
2018-02-21T00:34:24.039Z,74.18
2018-02-21T00:37:00.042Z,74.61
2018-02-21T00:39:35.601Z,75.01
2018-02-21T00:42:10.201Z,75.26
2018-02-21T00:44:45.128Z,75.41
2018-02-21T00:47:19.998Z,75.55
2018-02-21T00:49:54.888Z,75.75
2018-02-21T00:52:30.047Z,75.94
2018-02-21T00:55:05.276Z,76.22
2018-02-21T00:57:40.647Z,76.44
2018-02-21T01:00:15.975Z,76.60
2018-02-21T01:02:50.974Z,76.87
2018-02-21T01:05:26.575Z,77.23
2018-02-21T01:08:01.927Z,77.41
2018-02-21T01:10:37.003Z,77.56
2018-02-21T01:13:12.152Z,77.69
2018-02-21T01:15:47.639Z,77.57
2018-02-21T01:18:22.672Z,77.47
2018-02-21T01:20:57.791Z,77.50
2018-02-21T01:23:32.774Z,77.55
2018-02-21T01:26:08.072Z,77.93
2018-02-21T01:28:43.201Z,77.99
2018-02-21T01:31:17.997Z,77.94
2018-02-21T01:33:53.716Z,77.90
2018-02-21T01:36:28.775Z,77.93
2018-02-21T01:39:03.111Z,78.20
2018-02-21T01:41:38.199Z,78.35
2018-02-21T01:44:13.367Z,78.43
2018-02-21T01:46:48.059Z,78.40
2018-02-21T01:49:23.075Z,78.38
2018-02-21T01:52:00.068Z,78.52
2018-02-21T01:54:34.795Z,78.70
2018-02-21T01:57:10.056Z,78.79
2018-02-21T01:59:45.231Z,78.72
2018-02-21T02:02:19.959Z,78.66
2018-02-21T02:04:55.224Z,78.68
2018-02-21T02:07:29.939Z,78.48
2018-02-21T02:10:05.248Z,78.35
2018-02-21T02:12:40.684Z,78.30
2018-02-21T02:15:16.068Z,78.32
2018-02-21T02:17:51.272Z,78.47
2018-02-21T02:20:26.828Z,78.67
2018-02-21T02:23:02.067Z,78.82
2018-02-21T02:25:37.014Z,79.01
2018-02-21T02:28:11.372Z,79.17
2018-02-21T02:30:46.859Z,79.28
2018-02-21T02:33:21.932Z,79.27
2018-02-21T02:35:57.297Z,79.18
2018-02-21T02:38:39.682Z,79.15
2018-02-21T02:41:15.080Z,79.18
2018-02-21T02:43:49.807Z,79.23
2018-02-21T02:46:25.065Z,79.33
2018-02-21T02:49:00.826Z,79.50
2018-02-21T02:51:37.773Z,79.61
2018-02-21T02:54:13.080Z,79.71
2018-02-21T02:56:48.055Z,79.77
2018-02-21T02:59:22.886Z,79.81
2018-02-21T03:01:57.364Z,79.70
2018-02-21T03:04:31.992Z,79.52
2018-02-21T03:07:06.443Z,79.51
2018-02-21T03:09:41.935Z,79.76
2018-02-21T03:12:16.615Z,79.87
2018-02-21T03:14:51.075Z,80.01
2018-02-21T03:17:26.183Z,80.15
2018-02-21T03:20:01.366Z,80.24
2018-02-21T03:22:36.980Z,80.27
2018-02-21T03:25:12.188Z,80.28
2018-02-21T03:27:47.118Z,80.36
2018-02-21T03:30:22.076Z,80.38
2018-02-21T03:32:57.495Z,80.42
2018-02-21T03:35:33.064Z,80.59
2018-02-21T03:38:08.312Z,80.71
2018-02-21T03:40:42.951Z,80.81
2018-02-21T03:43:18.350Z,80.91
2018-02-21T03:45:53.191Z,80.85
2018-02-21T03:48:28.348Z,80.89
2018-02-21T03:51:02.971Z,80.93
2018-02-21T03:53:38.016Z,80.93
2018-02-21T03:56:13.289Z,80.84
2018-02-21T03:58:49.035Z,80.87
2018-02-21T04:01:23.493Z,80.81
2018-02-21T04:03:58.179Z,80.80
2018-02-21T04:06:33.048Z,80.79
2018-02-21T04:09:08.313Z,80.86
2018-02-21T04:11:43.178Z,80.90
2018-02-21T04:14:18.056Z,80.94
2018-02-21T04:16:53.215Z,80.95
2018-02-21T04:19:28.423Z,81.02
2018-02-21T04:22:04.215Z,81.11
2018-02-21T04:24:39.251Z,81.14
2018-02-21T04:27:14.503Z,81.16
2018-02-21T04:29:49.079Z,81.57
2018-02-21T04:32:24.426Z,82.05
2018-02-21T04:35:00.436Z,82.13
2018-02-21T04:37:35.695Z,82.18
2018-02-21T04:40:10.948Z,82.16
2018-02-21T04:42:46.851Z,81.99
2018-02-21T04:45:22.139Z,81.87
2018-02-21T04:47:57.235Z,81.90
2018-02-21T04:50:32.522Z,81.82
2018-02-21T04:53:07.227Z,81.70
2018-02-21T04:55:42.504Z,81.77
2018-02-21T04:58:22.851Z,82.02
2018-02-21T05:00:57.851Z,82.67
2018-02-21T05:03:33.307Z,82.94
2018-02-21T05:06:08.587Z,83.01
2018-02-21T05:08:43.234Z,82.92
2018-02-21T05:11:18.453Z,82.68
2018-02-21T05:13:53.486Z,82.42
2018-02-21T05:16:31.403Z,82.32
2018-02-21T05:19:06.517Z,82.28
2018-02-21T05:21:41.180Z,82.20
2018-02-21T05:24:16.459Z,82.16
2018-02-21T05:26:51.195Z,82.13
2018-02-21T05:29:25.554Z,82.06
2018-02-21T05:32:00.571Z,82.11
2018-02-21T05:34:35.617Z,82.20
2018-02-21T05:37:10.488Z,82.26
2018-02-21T05:39:45.395Z,82.30
2018-02-21T05:42:20.659Z,82.29
2018-02-21T05:44:55.390Z,82.45
2018-02-21T05:47:30.379Z,82.55
2018-02-21T05:50:04.395Z,82.66
2018-02-21T05:52:40.267Z,82.81
2018-02-21T05:55:15.591Z,82.78
2018-02-21T05:57:50.187Z,82.70
2018-02-21T06:00:25.294Z,82.58
2018-02-21T06:03:00.704Z,82.52
2018-02-21T06:05:35.764Z,82.56
2018-02-21T06:08:11.091Z,82.63
2018-02-21T06:10:46.416Z,82.62
2018-02-21T06:13:21.592Z,82.44
2018-02-21T06:15:57.162Z,82.26
2018-02-21T06:18:31.863Z,82.26
2018-02-21T06:21:06.866Z,82.28
2018-02-21T06:23:42.394Z,82.17
2018-02-21T06:26:17.687Z,82.18
2018-02-21T06:28:52.427Z,82.24
2018-02-21T06:31:27.443Z,82.39
2018-02-21T06:34:02.744Z,82.54
2018-02-21T06:36:37.627Z,82.50
2018-02-21T06:39:12.604Z,82.43
2018-02-21T06:41:47.539Z,82.43
2018-02-21T06:44:22.374Z,82.49
2018-02-21T06:46:57.643Z,82.54
2018-02-21T06:49:32.794Z,82.61
2018-02-21T06:52:07.796Z,82.99
2018-02-21T06:54:42.791Z,84.39
2018-02-21T06:57:17.748Z,89.26
2018-02-21T06:59:52.600Z,91.58
2018-02-21T07:02:36.670Z,90.27
2018-02-21T07:05:12.019Z,89.85
2018-02-21T07:07:47.560Z,89.10
2018-02-21T07:10:22.460Z,88.64
2018-02-21T07:12:57.628Z,87.01
2018-02-21T07:15:32.297Z,87.28
2018-02-21T07:18:07.743Z,88.50
2018-02-21T07:20:42.843Z,86.30
2018-02-21T07:23:17.719Z,85.91
2018-02-21T07:25:52.585Z,85.81
2018-02-21T07:28:27.436Z,86.43
2018-02-21T07:31:02.771Z,86.03
2018-02-21T07:33:37.895Z,85.61
2018-02-21T07:36:12.720Z,85.34
2018-02-21T07:38:47.491Z,85.07
2018-02-21T07:41:22.764Z,84.79
2018-02-21T07:43:58.021Z,83.84
2018-02-21T07:46:32.691Z,84.22
2018-02-21T07:49:07.764Z,85.08
2018-02-21T07:51:42.479Z,84.94
2018-02-21T07:54:17.780Z,84.47
2018-02-21T07:56:52.615Z,84.25
2018-02-21T07:59:27.903Z,83.21
2018-02-21T08:02:02.756Z,82.39
2018-02-21T08:04:37.512Z,80.95
2018-02-21T08:07:12.761Z,80.73
2018-02-21T08:09:47.752Z,79.96
2018-02-21T08:12:22.647Z,79.46
2018-02-21T08:14:57.928Z,79.56
2018-02-21T08:17:32.959Z,77.65
2018-02-21T08:20:08.046Z,77.71
2018-02-21T08:22:43.111Z,76.78
2018-02-21T08:25:18.772Z,76.76
2018-02-21T08:27:54.091Z,76.43
2018-02-21T08:30:28.635Z,75.71
2018-02-21T08:33:03.916Z,75.50
2018-02-21T08:35:41.963Z,74.60
2018-02-21T08:38:17.728Z,73.48
2018-02-21T08:40:52.596Z,73.53
2018-02-21T08:43:27.587Z,70.97
2018-02-21T08:46:02.169Z,70.57
2018-02-21T08:48:36.828Z,70.15
2018-02-21T08:51:11.671Z,70.10
2018-02-21T08:53:46.654Z,69.73
2018-02-21T08:56:21.944Z,69.30
2018-02-21T08:58:57.240Z,69.80
2018-02-21T09:01:31.994Z,69.02
2018-02-21T09:04:07.051Z,68.56
2018-02-21T09:06:42.205Z,68.46
2018-02-21T09:09:17.811Z,68.52
2018-02-21T09:11:52.856Z,67.49
2018-02-21T09:14:27.695Z,67.76
2018-02-21T09:17:02.732Z,67.35
2018-02-21T09:19:37.007Z,67.04
2018-02-21T09:22:12.180Z,66.91
2018-02-21T09:24:47.620Z,66.06
2018-02-21T09:27:22.679Z,65.48
2018-02-21T09:29:57.880Z,65.18
2018-02-21T09:32:32.707Z,64.81
2018-02-21T09:35:08.031Z,64.46
2018-02-21T09:37:42.863Z,63.86
2018-02-21T09:40:17.919Z,63.63
2018-02-21T09:42:52.644Z,62.59
2018-02-21T09:45:27.860Z,62.23
2018-02-21T09:48:03.069Z,61.26
2018-02-21T09:50:37.907Z,60.55
2018-02-21T09:53:13.041Z,60.02
2018-02-21T09:55:48.038Z,59.19
2018-02-21T09:58:22.792Z,59.09
2018-02-21T10:00:58.117Z,57.99
2018-02-21T10:03:33.387Z,56.64
2018-02-21T10:06:08.947Z,56.35
2018-02-21T10:08:43.785Z,56.13
2018-02-21T10:11:18.899Z,54.70
2018-02-21T10:13:53.832Z,55.00
2018-02-21T10:16:28.811Z,54.96
2018-02-21T10:19:03.301Z,54.55
2018-02-21T10:21:38.435Z,53.64
2018-02-21T10:24:14.619Z,52.65
2018-02-21T10:26:49.220Z,53.57
2018-02-21T10:29:23.922Z,53.88
2018-02-21T10:31:59.199Z,52.83
2018-02-21T10:34:34.284Z,53.45
2018-02-21T10:37:09.533Z,54.38
2018-02-21T10:39:44.976Z,54.22
2018-02-21T10:42:19.893Z,53.70
2018-02-21T10:44:55.043Z,54.48
2018-02-21T10:47:30.228Z,55.09
2018-02-21T10:50:05.515Z,54.47
2018-02-21T10:52:40.976Z,51.96
2018-02-21T10:55:15.819Z,52.39
2018-02-21T10:57:51.083Z,52.26
2018-02-21T11:00:32.291Z,51.89
2018-02-21T11:03:07.549Z,50.99
2018-02-21T11:05:43.019Z,50.26
2018-02-21T11:08:17.663Z,50.94
2018-02-21T11:10:52.327Z,49.65
2018-02-21T11:13:26.996Z,51.21
2018-02-21T11:16:01.919Z,50.22
2018-02-21T11:18:37.016Z,49.17
2018-02-21T11:21:11.707Z,49.77
2018-02-21T11:23:47.085Z,48.05
2018-02-21T11:26:21.767Z,49.16
2018-02-21T11:28:57.172Z,50.52
2018-02-21T11:31:32.135Z,50.29
2018-02-21T11:34:06.938Z,49.28
2018-02-21T11:36:41.992Z,47.42
2018-02-21T11:39:17.184Z,47.18
2018-02-21T11:41:52.165Z,45.38
2018-02-21T11:44:27.379Z,46.19
2018-02-21T11:47:02.435Z,45.85
2018-02-21T11:49:37.387Z,44.66
2018-02-21T11:52:12.621Z,45.64
2018-02-21T11:54:47.719Z,46.73
2018-02-21T11:57:23.024Z,45.29
2018-02-21T11:59:58.179Z,45.21
2018-02-21T12:02:33.791Z,44.26
2018-02-21T12:05:08.660Z,43.68
2018-02-21T12:07:43.623Z,46.63
2018-02-21T12:10:19.228Z,47.04
2018-02-21T12:12:54.151Z,47.67
2018-02-21T12:15:29.331Z,47.92
2018-02-21T12:18:03.987Z,45.27
2018-02-21T12:20:38.426Z,45.98
2018-02-21T12:23:13.067Z,45.13
2018-02-21T12:25:48.260Z,45.25
2018-02-21T12:28:23.399Z,47.43
2018-02-21T12:30:58.155Z,46.24
2018-02-21T12:33:33.235Z,47.05
2018-02-21T12:36:08.295Z,45.63
2018-02-21T12:38:43.142Z,45.65
2018-02-21T12:41:23.687Z,46.08
2018-02-21T12:43:58.117Z,46.55
2018-02-21T12:46:33.576Z,47.29
2018-02-21T12:49:09.278Z,46.80
2018-02-21T12:51:44.335Z,46.73
2018-02-21T12:54:19.580Z,47.16
2018-02-21T12:56:54.800Z,47.83
2018-02-21T12:59:30.299Z,47.87
2018-02-21T13:02:05.227Z,47.15
2018-02-21T13:04:39.771Z,46.49
2018-02-21T13:07:15.831Z,44.89
2018-02-21T13:09:52.054Z,45.40
2018-02-21T13:12:26.690Z,45.72
2018-02-21T13:15:01.799Z,45.54
2018-02-21T13:17:36.744Z,46.72
2018-02-21T13:20:11.325Z,48.24
2018-02-21T13:22:46.599Z,47.58
2018-02-21T13:25:21.779Z,49.29
2018-02-21T13:27:56.829Z,48.82
2018-02-21T13:30:31.927Z,49.43
2018-02-21T13:33:07.179Z,50.05
2018-02-21T13:35:42.155Z,49.98
2018-02-21T13:38:17.635Z,48.46
2018-02-21T13:40:52.615Z,48.19
2018-02-21T13:43:27.559Z,47.49
2018-02-21T13:46:02.007Z,48.67
2018-02-21T13:48:36.714Z,48.33
2018-02-21T13:51:12.363Z,48.08
2018-02-21T13:53:47.183Z,48.56
2018-02-21T13:56:21.687Z,47.86
2018-02-21T13:58:56.439Z,47.82
2018-02-21T14:01:31.748Z,48.58
2018-02-21T14:04:07.591Z,48.33
2018-02-21T14:06:42.629Z,48.41
2018-02-21T14:09:17.764Z,46.69
2018-02-21T14:11:52.674Z,47.66
2018-02-21T14:14:27.938Z,48.06
2018-02-21T14:17:02.751Z,47.94
2018-02-21T14:19:37.451Z,48.68
2018-02-21T14:22:12.535Z,47.61
2018-02-21T14:24:47.604Z,47.50
2018-02-21T14:27:23.459Z,48.76
2018-02-21T14:29:58.716Z,49.54
2018-02-21T14:32:34.167Z,49.57
2018-02-21T14:35:09.428Z,49.90
2018-02-21T14:37:44.691Z,50.34
2018-02-21T14:40:19.598Z,50.83
2018-02-21T14:42:53.967Z,50.08
2018-02-21T14:45:28.579Z,49.85
2018-02-21T14:48:03.540Z,50.49
2018-02-21T14:50:38.575Z,49.87
2018-02-21T14:53:13.764Z,49.95
2018-02-21T14:55:48.803Z,50.23
2018-02-21T14:58:23.995Z,50.42
2018-02-21T15:00:58.685Z,51.02
2018-02-21T15:03:34.495Z,51.63
2018-02-21T15:06:09.859Z,51.79
2018-02-21T15:08:44.599Z,51.97
2018-02-21T15:11:19.635Z,52.78
2018-02-21T15:13:54.711Z,52.96
2018-02-21T15:16:29.960Z,52.61
2018-02-21T15:19:05.653Z,52.91
2018-02-21T15:21:40.626Z,53.20
2018-02-21T15:24:15.816Z,53.42
2018-02-21T15:26:50.874Z,53.62
2018-02-21T15:29:26.444Z,53.51
2018-02-21T15:32:01.933Z,53.20
2018-02-21T15:34:36.984Z,53.76
2018-02-21T15:37:12.032Z,53.63
2018-02-21T15:39:47.606Z,54.30
2018-02-21T15:42:22.571Z,52.15
2018-02-21T15:44:57.732Z,52.92
2018-02-21T15:47:33.271Z,52.91
2018-02-21T15:50:08.880Z,53.13
2018-02-21T15:52:43.835Z,53.17
2018-02-21T15:55:18.908Z,53.60
2018-02-21T15:57:53.608Z,52.72
2018-02-21T16:00:28.711Z,53.08
2018-02-21T16:03:04.003Z,53.43
2018-02-21T16:05:38.948Z,54.36
2018-02-21T16:08:14.008Z,54.41
2018-02-21T16:10:48.860Z,53.98
2018-02-21T16:13:23.871Z,54.09
2018-02-21T16:15:58.943Z,54.30
2018-02-21T16:18:34.252Z,54.23
2018-02-21T16:21:09.976Z,54.59
2018-02-21T16:23:44.315Z,54.51
2018-02-21T16:26:19.779Z,55.71
2018-02-21T16:28:54.796Z,56.42
2018-02-21T16:31:29.840Z,56.36
2018-02-21T16:34:04.603Z,56.96
2018-02-21T16:36:39.795Z,56.02
2018-02-21T16:39:15.039Z,56.63
2018-02-21T16:41:49.844Z,56.00
2018-02-21T16:44:24.867Z,55.94
2018-02-21T16:46:59.960Z,56.05
2018-02-21T16:49:35.095Z,56.09
2018-02-21T16:52:10.335Z,56.02
2018-02-21T16:54:45.667Z,56.50
2018-02-21T16:57:20.784Z,56.23
2018-02-21T16:59:55.799Z,56.09
2018-02-21T17:02:30.747Z,55.83
2018-02-21T17:05:05.920Z,56.06
2018-02-21T17:07:41.001Z,56.09
2018-02-21T17:10:16.731Z,56.21
2018-02-21T17:12:51.660Z,56.55
2018-02-21T17:15:26.747Z,56.70
2018-02-21T17:18:02.206Z,56.70
2018-02-21T17:20:36.827Z,56.69
2018-02-21T17:23:12.134Z,57.18
2018-02-21T17:25:46.939Z,57.13
2018-02-21T17:28:21.902Z,57.28
2018-02-21T17:30:56.250Z,57.55
2018-02-21T17:33:30.802Z,57.70
2018-02-21T17:36:06.051Z,57.72
2018-02-21T17:38:41.327Z,57.77
2018-02-21T17:41:21.975Z,57.80
2018-02-21T17:43:57.863Z,58.58
2018-02-21T17:46:32.253Z,58.96
2018-02-21T17:49:07.892Z,59.18
2018-02-21T17:51:43.076Z,59.01
2018-02-21T17:54:17.420Z,58.92
2018-02-21T17:56:52.878Z,58.95
2018-02-21T17:59:27.963Z,59.06
2018-02-21T18:02:03.135Z,59.00
2018-02-21T18:04:38.028Z,58.78
2018-02-21T18:07:13.207Z,59.05
2018-02-21T18:09:48.033Z,59.24
2018-02-21T18:12:23.052Z,59.25
2018-02-21T18:14:57.987Z,59.26
2018-02-21T18:17:32.339Z,59.86
2018-02-21T18:20:08.152Z,60.02
2018-02-21T18:22:43.401Z,60.06
2018-02-21T18:25:18.519Z,60.24
2018-02-21T18:27:53.047Z,60.45
2018-02-21T18:30:27.381Z,60.61
2018-02-21T18:33:02.397Z,60.62
2018-02-21T18:35:37.187Z,60.60
2018-02-21T18:38:12.359Z,60.82
2018-02-21T18:40:47.219Z,61.07
2018-02-21T18:43:22.279Z,61.09
2018-02-21T18:45:57.015Z,61.17
2018-02-21T18:48:32.167Z,61.26
2018-02-21T18:51:07.260Z,61.49
2018-02-21T18:53:41.616Z,61.65
2018-02-21T18:56:16.907Z,61.71
2018-02-21T18:58:52.099Z,61.59
2018-02-21T19:01:27.170Z,61.56
2018-02-21T19:04:02.555Z,61.63
2018-02-21T19:06:39.023Z,61.74
2018-02-21T19:09:14.327Z,61.75
2018-02-21T19:11:49.226Z,61.93
2018-02-21T19:14:24.244Z,61.97
2018-02-21T19:16:59.203Z,61.99
2018-02-21T19:19:34.563Z,61.91
2018-02-21T19:22:10.008Z,61.91
2018-02-21T19:24:45.165Z,61.89
2018-02-21T19:27:20.843Z,62.07
2018-02-21T19:29:55.480Z,62.30
2018-02-21T19:32:30.124Z,62.33
2018-02-21T19:35:04.660Z,62.38
2018-02-21T19:37:39.284Z,62.33
2018-02-21T19:40:14.278Z,62.33
2018-02-21T19:42:49.416Z,62.46
2018-02-21T19:45:24.107Z,62.69
2018-02-21T19:47:59.337Z,62.96
2018-02-21T19:50:34.204Z,63.12
2018-02-21T19:53:09.485Z,63.16
2018-02-21T19:55:45.183Z,63.15
2018-02-21T19:58:20.398Z,63.24
2018-02-21T20:00:55.330Z,63.31
2018-02-21T20:03:30.926Z,63.33
2018-02-21T20:06:05.560Z,63.43
2018-02-21T20:08:40.637Z,63.52
2018-02-21T20:11:15.041Z,63.64
2018-02-21T20:13:50.164Z,63.78
2018-02-21T20:16:25.255Z,63.95
2018-02-21T20:19:00.435Z,63.98
2018-02-21T20:21:35.298Z,63.74
2018-02-21T20:24:10.053Z,63.53
2018-02-21T20:26:44.599Z,63.30
2018-02-21T20:29:19.563Z,63.22
2018-02-21T20:31:55.248Z,63.15
2018-02-21T20:34:30.336Z,63.04
2018-02-21T20:37:04.898Z,62.63
2018-02-21T20:39:40.343Z,62.46
2018-02-21T20:42:15.228Z,62.27
2018-02-21T20:44:50.268Z,62.57
2018-02-21T20:47:24.761Z,62.85
2018-02-21T20:49:59.937Z,62.92
2018-02-21T20:52:34.565Z,62.86
2018-02-21T20:55:09.347Z,62.82
2018-02-21T20:57:43.803Z,62.54
2018-02-21T21:00:18.391Z,62.57
2018-02-21T21:02:53.571Z,62.17
2018-02-21T21:05:28.339Z,62.30
2018-02-21T21:08:03.449Z,62.20
2018-02-21T21:10:37.839Z,62.63
2018-02-21T21:13:12.813Z,62.87
2018-02-21T21:15:47.514Z,62.66
2018-02-21T21:18:22.659Z,62.85
2018-02-21T21:20:57.962Z,62.56
2018-02-21T21:23:33.483Z,62.70
2018-02-21T21:26:08.657Z,62.84
2018-02-21T21:28:43.488Z,63.05
2018-02-21T21:31:18.755Z,63.05
2018-02-21T21:33:53.500Z,62.89
2018-02-21T21:36:28.660Z,62.94
2018-02-21T21:39:03.927Z,63.26
2018-02-21T21:41:38.565Z,63.51
2018-02-21T21:44:12.867Z,63.37
2018-02-21T21:46:47.923Z,63.57
2018-02-21T21:49:22.555Z,63.83
2018-02-21T21:51:57.611Z,64.11
2018-02-21T21:54:32.507Z,64.19
2018-02-21T21:57:07.787Z,64.46
2018-02-21T21:59:42.735Z,64.98
2018-02-21T22:02:17.865Z,65.94
2018-02-21T22:04:53.155Z,66.41
2018-02-21T22:07:28.076Z,66.86
2018-02-21T22:10:03.623Z,67.02
2018-02-21T22:12:38.787Z,66.66
2018-02-21T22:15:13.656Z,66.45
2018-02-21T22:17:48.863Z,65.98
2018-02-21T22:20:23.820Z,66.02
2018-02-21T22:22:58.823Z,66.20
2018-02-21T22:25:33.919Z,66.36
2018-02-21T22:28:09.484Z,66.30
2018-02-21T22:30:44.612Z,66.33
2018-02-21T22:33:19.601Z,66.22
2018-02-21T22:35:54.583Z,66.27
2018-02-21T22:38:29.760Z,66.33
2018-02-21T22:41:04.000Z,66.21
2018-02-21T22:43:38.696Z,66.27
2018-02-21T22:46:13.864Z,66.36
2018-02-21T22:48:48.888Z,66.72
2018-02-21T22:51:23.348Z,66.77
2018-02-21T22:53:58.636Z,66.95
2018-02-21T22:56:33.671Z,66.89
2018-02-21T22:59:09.799Z,66.86
2018-02-21T23:01:44.947Z,66.91
2018-02-21T23:04:19.848Z,66.91
2018-02-21T23:06:54.631Z,66.96
2018-02-21T23:09:29.687Z,67.35
2018-02-21T23:12:04.167Z,67.52
2018-02-21T23:14:39.711Z,67.70
2018-02-21T23:17:14.677Z,67.34
2018-02-21T23:19:49.724Z,67.73
2018-02-21T23:22:24.687Z,67.81
2018-02-21T23:24:59.691Z,67.75
2018-02-21T23:27:35.040Z,67.89
2018-02-21T23:30:09.675Z,68.08
2018-02-21T23:32:44.911Z,68.14
2018-02-21T23:35:20.564Z,68.12
2018-02-21T23:37:55.848Z,68.00
2018-02-21T23:40:31.049Z,68.02
2018-02-21T23:43:06.268Z,68.41
2018-02-21T23:45:40.827Z,68.30
2018-02-21T23:48:16.019Z,68.12
2018-02-21T23:50:51.284Z,68.33
2018-02-21T23:53:26.640Z,68.46
2018-02-21T23:56:03.046Z,68.64
2018-02-21T23:58:38.039Z,68.76
